sensor_id;sensor_type;location;lat;lon;timestamp;temperature;humidity
10083;DHT22;5080;48.528;8.078;2023-11-22T00:00:27;10.00;99.90
10083;DHT22;5080;48.528;8.078;2023-11-22T00:02:54;10.00;99.90
10083;DHT22;5080;48.528;8.078;2023-11-22T00:05:20;10.00;99.90
10083;DHT22;5080;48.528;8.078;2023-11-22T00:07:47;10.00;99.90
10083;DHT22;5080;48.528;8.078;2023-11-22T00:10:16;10.00;99.90
10083;DHT22;5080;48.528;8.078;2023-11-22T00:12:43;10.00;99.90
10083;DHT22;5080;48.528;8.078;2023-11-22T00:15:10;9.90;99.90
10083;DHT22;5080;48.528;8.078;2023-11-22T00:17:37;9.90;99.90
10083;DHT22;5080;48.528;8.078;2023-11-22T00:20:05;9.80;99.90
10083;DHT22;5080;48.528;8.078;2023-11-22T00:22:33;9.80;99.90
10083;DHT22;5080;48.528;8.078;2023-11-22T00:25:00;9.70;99.90
10083;DHT22;5080;48.528;8.078;2023-11-22T00:27:29;9.70;99.90
10083;DHT22;5080;48.528;8.078;2023-11-22T00:29:57;9.80;99.90
10083;DHT22;5080;48.528;8.078;2023-11-22T00:32:23;9.70;99.90
10083;DHT22;5080;48.528;8.078;2023-11-22T00:34:51;9.60;99.90
10083;DHT22;5080;48.528;8.078;2023-11-22T00:37:18;9.60;99.90
10083;DHT22;5080;48.528;8.078;2023-11-22T00:39:45;9.50;99.90
10083;DHT22;5080;48.528;8.078;2023-11-22T00:42:11;9.40;99.90
10083;DHT22;5080;48.528;8.078;2023-11-22T00:44:40;9.30;99.90
10083;DHT22;5080;48.528;8.078;2023-11-22T00:47:07;9.10;99.90
10083;DHT22;5080;48.528;8.078;2023-11-22T00:49:33;9.00;99.90
10083;DHT22;5080;48.528;8.078;2023-11-22T00:52:00;9.00;99.90
10083;DHT22;5080;48.528;8.078;2023-11-22T00:54:28;8.90;99.90
10083;DHT22;5080;48.528;8.078;2023-11-22T00:56:55;8.80;99.90
10083;DHT22;5080;48.528;8.078;2023-11-22T00:59:21;8.80;99.90
10083;DHT22;5080;48.528;8.078;2023-11-22T01:01:49;8.70;99.90
10083;DHT22;5080;48.528;8.078;2023-11-22T01:04:16;8.60;99.90
10083;DHT22;5080;48.528;8.078;2023-11-22T01:06:43;8.50;99.90
10083;DHT22;5080;48.528;8.078;2023-11-22T01:09:10;8.60;99.90
10083;DHT22;5080;48.528;8.078;2023-11-22T01:11:39;8.50;99.90
10083;DHT22;5080;48.528;8.078;2023-11-22T01:14:05;8.40;99.90
10083;DHT22;5080;48.528;8.078;2023-11-22T01:16:32;8.40;99.90
10083;DHT22;5080;48.528;8.078;2023-11-22T01:19:00;8.30;99.90
10083;DHT22;5080;48.528;8.078;2023-11-22T01:21:27;8.30;99.90
10083;DHT22;5080;48.528;8.078;2023-11-22T01:23:54;8.30;99.90
10083;DHT22;5080;48.528;8.078;2023-11-22T01:26:21;8.20;99.90
10083;DHT22;5080;48.528;8.078;2023-11-22T01:28:49;8.10;99.90
10083;DHT22;5080;48.528;8.078;2023-11-22T01:31:16;8.10;99.90
10083;DHT22;5080;48.528;8.078;2023-11-22T01:33:46;8.10;99.90
10083;DHT22;5080;48.528;8.078;2023-11-22T01:36:14;8.00;99.90
10083;DHT22;5080;48.528;8.078;2023-11-22T01:38:41;8.00;99.90
10083;DHT22;5080;48.528;8.078;2023-11-22T01:41:10;7.90;99.90
10083;DHT22;5080;48.528;8.078;2023-11-22T01:43:38;7.90;99.90
10083;DHT22;5080;48.528;8.078;2023-11-22T01:46:05;7.90;99.90
10083;DHT22;5080;48.528;8.078;2023-11-22T01:48:34;7.90;99.90
10083;DHT22;5080;48.528;8.078;2023-11-22T01:51:01;7.90;99.90
10083;DHT22;5080;48.528;8.078;2023-11-22T01:53:30;7.90;99.90
10083;DHT22;5080;48.528;8.078;2023-11-22T01:55:57;7.80;99.90
10083;DHT22;5080;48.528;8.078;2023-11-22T01:58:24;7.80;99.90
10083;DHT22;5080;48.528;8.078;2023-11-22T02:00:52;7.80;99.90
10083;DHT22;5080;48.528;8.078;2023-11-22T02:03:19;7.80;99.90
10083;DHT22;5080;48.528;8.078;2023-11-22T02:05:47;7.80;99.90
10083;DHT22;5080;48.528;8.078;2023-11-22T02:08:14;7.80;99.90
10083;DHT22;5080;48.528;8.078;2023-11-22T02:10:44;7.80;99.90
10083;DHT22;5080;48.528;8.078;2023-11-22T02:13:14;7.80;99.90
10083;DHT22;5080;48.528;8.078;2023-11-22T02:15:41;7.70;99.90
10083;DHT22;5080;48.528;8.078;2023-11-22T02:18:08;7.70;99.90
10083;DHT22;5080;48.528;8.078;2023-11-22T02:20:35;7.70;99.90
10083;DHT22;5080;48.528;8.078;2023-11-22T02:23:07;7.70;99.90
10083;DHT22;5080;48.528;8.078;2023-11-22T02:25:35;7.60;99.90
10083;DHT22;5080;48.528;8.078;2023-11-22T02:28:02;7.50;99.90
10083;DHT22;5080;48.528;8.078;2023-11-22T02:30:29;7.50;99.90
10083;DHT22;5080;48.528;8.078;2023-11-22T02:32:56;7.50;99.90
10083;DHT22;5080;48.528;8.078;2023-11-22T02:35:22;7.40;99.90
10083;DHT22;5080;48.528;8.078;2023-11-22T02:37:49;7.40;99.90
10083;DHT22;5080;48.528;8.078;2023-11-22T02:40:19;7.40;99.90
10083;DHT22;5080;48.528;8.078;2023-11-22T02:42:46;7.30;99.90
10083;DHT22;5080;48.528;8.078;2023-11-22T02:45:13;7.50;99.90
10083;DHT22;5080;48.528;8.078;2023-11-22T02:47:40;7.20;99.90
10083;DHT22;5080;48.528;8.078;2023-11-22T02:50:11;7.30;99.90
10083;DHT22;5080;48.528;8.078;2023-11-22T02:52:38;7.30;99.90
10083;DHT22;5080;48.528;8.078;2023-11-22T02:55:06;7.20;99.90
10083;DHT22;5080;48.528;8.078;2023-11-22T02:57:36;7.10;99.90
10083;DHT22;5080;48.528;8.078;2023-11-22T03:00:04;7.20;99.90
10083;DHT22;5080;48.528;8.078;2023-11-22T03:02:31;7.00;99.90
10083;DHT22;5080;48.528;8.078;2023-11-22T03:04:58;7.00;99.90
10083;DHT22;5080;48.528;8.078;2023-11-22T03:07:25;7.00;99.90
10083;DHT22;5080;48.528;8.078;2023-11-22T03:09:52;7.00;99.90
10083;DHT22;5080;48.528;8.078;2023-11-22T03:12:19;6.90;99.90
10083;DHT22;5080;48.528;8.078;2023-11-22T03:14:47;6.90;99.90
10083;DHT22;5080;48.528;8.078;2023-11-22T03:17:15;6.80;99.90
10083;DHT22;5080;48.528;8.078;2023-11-22T03:19:42;6.70;99.90
10083;DHT22;5080;48.528;8.078;2023-11-22T03:22:10;6.70;99.90
10083;DHT22;5080;48.528;8.078;2023-11-22T03:24:38;6.70;99.90
10083;DHT22;5080;48.528;8.078;2023-11-22T03:27:04;6.70;99.90
10083;DHT22;5080;48.528;8.078;2023-11-22T03:29:32;6.60;99.90
10083;DHT22;5080;48.528;8.078;2023-11-22T03:32:01;6.60;99.90
10083;DHT22;5080;48.528;8.078;2023-11-22T03:34:28;6.60;99.90
10083;DHT22;5080;48.528;8.078;2023-11-22T03:36:55;6.50;99.90
10083;DHT22;5080;48.528;8.078;2023-11-22T03:39:22;6.50;99.90
10083;DHT22;5080;48.528;8.078;2023-11-22T03:41:49;6.40;99.90
10083;DHT22;5080;48.528;8.078;2023-11-22T03:44:16;6.40;99.90
10083;DHT22;5080;48.528;8.078;2023-11-22T03:46:43;6.40;99.90
10083;DHT22;5080;48.528;8.078;2023-11-22T03:49:12;6.30;99.90
10083;DHT22;5080;48.528;8.078;2023-11-22T03:51:41;6.30;99.90
10083;DHT22;5080;48.528;8.078;2023-11-22T03:54:08;6.30;99.90
10083;DHT22;5080;48.528;8.078;2023-11-22T03:56:36;6.40;99.90
10083;DHT22;5080;48.528;8.078;2023-11-22T03:59:03;6.40;99.90
10083;DHT22;5080;48.528;8.078;2023-11-22T04:01:30;6.40;99.90
10083;DHT22;5080;48.528;8.078;2023-11-22T04:03:57;6.40;99.90
10083;DHT22;5080;48.528;8.078;2023-11-22T04:06:25;6.40;99.90
10083;DHT22;5080;48.528;8.078;2023-11-22T04:08:51;6.50;99.90
10083;DHT22;5080;48.528;8.078;2023-11-22T04:11:18;6.50;99.90
10083;DHT22;5080;48.528;8.078;2023-11-22T04:13:47;6.40;99.90
10083;DHT22;5080;48.528;8.078;2023-11-22T04:16:14;6.40;99.90
10083;DHT22;5080;48.528;8.078;2023-11-22T04:18:41;6.50;99.90
10083;DHT22;5080;48.528;8.078;2023-11-22T04:21:08;6.50;99.90
10083;DHT22;5080;48.528;8.078;2023-11-22T04:23:36;6.50;99.90
10083;DHT22;5080;48.528;8.078;2023-11-22T04:26:03;6.40;99.90
10083;DHT22;5080;48.528;8.078;2023-11-22T04:28:32;6.40;99.90
10083;DHT22;5080;48.528;8.078;2023-11-22T04:31:00;6.40;99.90
10083;DHT22;5080;48.528;8.078;2023-11-22T04:33:26;6.30;99.90
10083;DHT22;5080;48.528;8.078;2023-11-22T04:35:54;6.30;99.90
10083;DHT22;5080;48.528;8.078;2023-11-22T04:38:21;6.20;99.90
10083;DHT22;5080;48.528;8.078;2023-11-22T04:40:50;6.20;99.90
10083;DHT22;5080;48.528;8.078;2023-11-22T04:43:16;6.20;99.90
10083;DHT22;5080;48.528;8.078;2023-11-22T04:45:43;6.20;99.90
10083;DHT22;5080;48.528;8.078;2023-11-22T04:48:10;6.20;99.90
10083;DHT22;5080;48.528;8.078;2023-11-22T04:50:37;6.10;99.90
10083;DHT22;5080;48.528;8.078;2023-11-22T04:53:04;6.10;99.90
10083;DHT22;5080;48.528;8.078;2023-11-22T04:55:30;6.10;99.90
10083;DHT22;5080;48.528;8.078;2023-11-22T04:57:59;6.10;99.90
10083;DHT22;5080;48.528;8.078;2023-11-22T05:00:25;6.10;99.90
10083;DHT22;5080;48.528;8.078;2023-11-22T05:02:52;5.90;99.90
10083;DHT22;5080;48.528;8.078;2023-11-22T05:05:19;5.90;99.90
10083;DHT22;5080;48.528;8.078;2023-11-22T05:07:46;5.90;99.90
10083;DHT22;5080;48.528;8.078;2023-11-22T05:10:13;5.70;99.90
10083;DHT22;5080;48.528;8.078;2023-11-22T05:12:42;5.70;99.90
10083;DHT22;5080;48.528;8.078;2023-11-22T05:15:11;5.60;99.90
10083;DHT22;5080;48.528;8.078;2023-11-22T05:17:39;5.60;99.90
10083;DHT22;5080;48.528;8.078;2023-11-22T05:20:08;5.60;99.90
10083;DHT22;5080;48.528;8.078;2023-11-22T05:22:35;5.60;99.90
10083;DHT22;5080;48.528;8.078;2023-11-22T05:25:02;5.70;99.90
10083;DHT22;5080;48.528;8.078;2023-11-22T05:27:29;5.70;99.90
10083;DHT22;5080;48.528;8.078;2023-11-22T05:29:58;5.70;99.90
10083;DHT22;5080;48.528;8.078;2023-11-22T05:32:27;5.70;99.90
10083;DHT22;5080;48.528;8.078;2023-11-22T05:34:54;5.70;99.90
10083;DHT22;5080;48.528;8.078;2023-11-22T05:37:21;5.70;99.90
10083;DHT22;5080;48.528;8.078;2023-11-22T05:39:48;5.60;99.90
10083;DHT22;5080;48.528;8.078;2023-11-22T05:42:14;5.60;99.90
10083;DHT22;5080;48.528;8.078;2023-11-22T05:44:41;5.50;99.90
10083;DHT22;5080;48.528;8.078;2023-11-22T05:47:08;5.50;99.90
10083;DHT22;5080;48.528;8.078;2023-11-22T05:49:36;5.50;99.90
10083;DHT22;5080;48.528;8.078;2023-11-22T05:52:04;5.50;99.90
10083;DHT22;5080;48.528;8.078;2023-11-22T05:54:31;5.40;99.90
10083;DHT22;5080;48.528;8.078;2023-11-22T05:56:57;5.40;99.90
10083;DHT22;5080;48.528;8.078;2023-11-22T05:59:24;5.50;99.90
10083;DHT22;5080;48.528;8.078;2023-11-22T06:01:51;5.50;99.90
10083;DHT22;5080;48.528;8.078;2023-11-22T06:04:18;5.50;99.90
10083;DHT22;5080;48.528;8.078;2023-11-22T06:06:46;5.50;99.90
10083;DHT22;5080;48.528;8.078;2023-11-22T06:09:13;5.50;99.90
10083;DHT22;5080;48.528;8.078;2023-11-22T06:11:40;5.50;99.90
10083;DHT22;5080;48.528;8.078;2023-11-22T06:14:07;5.50;99.90
10083;DHT22;5080;48.528;8.078;2023-11-22T06:16:34;5.50;99.90
10083;DHT22;5080;48.528;8.078;2023-11-22T06:19:01;5.50;99.90
10083;DHT22;5080;48.528;8.078;2023-11-22T06:21:27;5.60;99.90
10083;DHT22;5080;48.528;8.078;2023-11-22T06:23:56;5.60;99.90
10083;DHT22;5080;48.528;8.078;2023-11-22T06:26:24;5.60;99.90
10083;DHT22;5080;48.528;8.078;2023-11-22T06:28:52;5.50;99.90
10083;DHT22;5080;48.528;8.078;2023-11-22T06:31:19;5.40;99.90
10083;DHT22;5080;48.528;8.078;2023-11-22T06:33:46;5.40;99.90
10083;DHT22;5080;48.528;8.078;2023-11-22T06:36:12;5.50;99.90
10083;DHT22;5080;48.528;8.078;2023-11-22T06:38:40;5.70;99.90
10083;DHT22;5080;48.528;8.078;2023-11-22T06:41:08;5.60;99.90
10083;DHT22;5080;48.528;8.078;2023-11-22T06:43:35;5.50;99.90
10083;DHT22;5080;48.528;8.078;2023-11-22T06:46:02;5.40;99.90
10083;DHT22;5080;48.528;8.078;2023-11-22T06:48:31;5.40;99.90
10083;DHT22;5080;48.528;8.078;2023-11-22T06:50:59;5.40;99.90
10083;DHT22;5080;48.528;8.078;2023-11-22T06:53:26;5.40;99.90
10083;DHT22;5080;48.528;8.078;2023-11-22T06:55:53;5.50;99.90
10083;DHT22;5080;48.528;8.078;2023-11-22T06:58:21;5.40;99.90
10083;DHT22;5080;48.528;8.078;2023-11-22T07:00:48;5.50;99.90
10083;DHT22;5080;48.528;8.078;2023-11-22T07:03:14;5.50;99.90
10083;DHT22;5080;48.528;8.078;2023-11-22T07:05:41;5.40;99.90
10083;DHT22;5080;48.528;8.078;2023-11-22T07:08:08;5.50;99.90
10083;DHT22;5080;48.528;8.078;2023-11-22T07:10:36;5.80;99.90
10083;DHT22;5080;48.528;8.078;2023-11-22T07:13:03;7.80;99.90
10083;DHT22;5080;48.528;8.078;2023-11-22T07:15:31;8.20;99.90
10083;DHT22;5080;48.528;8.078;2023-11-22T07:17:58;7.40;99.90
10083;DHT22;5080;48.528;8.078;2023-11-22T07:20:25;6.60;99.90
10083;DHT22;5080;48.528;8.078;2023-11-22T07:22:52;6.20;99.90
10083;DHT22;5080;48.528;8.078;2023-11-22T07:25:23;5.80;99.90
10083;DHT22;5080;48.528;8.078;2023-11-22T07:27:52;5.50;99.90
10083;DHT22;5080;48.528;8.078;2023-11-22T07:30:19;5.40;99.90
10083;DHT22;5080;48.528;8.078;2023-11-22T07:32:50;5.30;99.90
10083;DHT22;5080;48.528;8.078;2023-11-22T07:35:17;5.30;99.90
10083;DHT22;5080;48.528;8.078;2023-11-22T07:37:46;5.30;99.90
10083;DHT22;5080;48.528;8.078;2023-11-22T07:40:13;5.20;99.90
10083;DHT22;5080;48.528;8.078;2023-11-22T07:42:43;5.20;99.90
10083;DHT22;5080;48.528;8.078;2023-11-22T07:45:10;5.20;99.90
10083;DHT22;5080;48.528;8.078;2023-11-22T07:47:37;5.20;99.90
10083;DHT22;5080;48.528;8.078;2023-11-22T07:50:09;5.20;99.90
10083;DHT22;5080;48.528;8.078;2023-11-22T07:52:36;5.10;99.90
10083;DHT22;5080;48.528;8.078;2023-11-22T07:55:05;5.20;99.90
10083;DHT22;5080;48.528;8.078;2023-11-22T07:57:33;5.20;99.90
10083;DHT22;5080;48.528;8.078;2023-11-22T08:00:00;5.20;99.90
10083;DHT22;5080;48.528;8.078;2023-11-22T08:02:32;5.30;99.90
10083;DHT22;5080;48.528;8.078;2023-11-22T08:04:59;5.30;99.90
10083;DHT22;5080;48.528;8.078;2023-11-22T08:07:28;5.30;99.90
10083;DHT22;5080;48.528;8.078;2023-11-22T08:09:55;5.30;99.90
10083;DHT22;5080;48.528;8.078;2023-11-22T08:12:22;5.20;99.90
10083;DHT22;5080;48.528;8.078;2023-11-22T08:14:49;5.20;99.90
10083;DHT22;5080;48.528;8.078;2023-11-22T08:17:16;5.30;99.90
10083;DHT22;5080;48.528;8.078;2023-11-22T08:19:44;5.20;99.90
10083;DHT22;5080;48.528;8.078;2023-11-22T08:22:13;5.10;99.90
10083;DHT22;5080;48.528;8.078;2023-11-22T08:24:41;5.20;99.90
10083;DHT22;5080;48.528;8.078;2023-11-22T08:27:09;5.20;99.90
10083;DHT22;5080;48.528;8.078;2023-11-22T08:29:37;5.20;99.90
10083;DHT22;5080;48.528;8.078;2023-11-22T08:32:05;5.20;99.90
10083;DHT22;5080;48.528;8.078;2023-11-22T08:34:32;5.30;99.90
10083;DHT22;5080;48.528;8.078;2023-11-22T08:36:59;5.30;99.90
10083;DHT22;5080;48.528;8.078;2023-11-22T08:39:25;5.30;99.90
10083;DHT22;5080;48.528;8.078;2023-11-22T08:41:54;5.40;99.90
10083;DHT22;5080;48.528;8.078;2023-11-22T08:44:20;5.50;99.90
10083;DHT22;5080;48.528;8.078;2023-11-22T08:46:48;5.50;99.90
10083;DHT22;5080;48.528;8.078;2023-11-22T08:49:15;5.40;99.90
10083;DHT22;5080;48.528;8.078;2023-11-22T08:51:42;5.40;99.90
10083;DHT22;5080;48.528;8.078;2023-11-22T08:54:10;5.30;99.90
10083;DHT22;5080;48.528;8.078;2023-11-22T08:56:36;5.10;99.90
10083;DHT22;5080;48.528;8.078;2023-11-22T08:59:04;5.00;99.90
10083;DHT22;5080;48.528;8.078;2023-11-22T09:01:31;5.00;99.90
10083;DHT22;5080;48.528;8.078;2023-11-22T09:03:58;5.00;99.90
10083;DHT22;5080;48.528;8.078;2023-11-22T09:06:25;4.90;99.90
10083;DHT22;5080;48.528;8.078;2023-11-22T09:08:52;4.90;99.90
10083;DHT22;5080;48.528;8.078;2023-11-22T09:11:18;4.90;99.90
10083;DHT22;5080;48.528;8.078;2023-11-22T09:13:47;4.90;99.90
10083;DHT22;5080;48.528;8.078;2023-11-22T09:16:17;5.00;99.90
10083;DHT22;5080;48.528;8.078;2023-11-22T09:18:45;4.80;99.90
10083;DHT22;5080;48.528;8.078;2023-11-22T09:21:11;4.90;99.90
10083;DHT22;5080;48.528;8.078;2023-11-22T09:23:38;4.90;99.90
10083;DHT22;5080;48.528;8.078;2023-11-22T09:26:05;4.70;99.90
10083;DHT22;5080;48.528;8.078;2023-11-22T09:28:32;4.70;99.90
10083;DHT22;5080;48.528;8.078;2023-11-22T09:30:58;4.90;99.90
10083;DHT22;5080;48.528;8.078;2023-11-22T09:33:32;4.90;99.90
10083;DHT22;5080;48.528;8.078;2023-11-22T09:35:59;4.90;99.90
10083;DHT22;5080;48.528;8.078;2023-11-22T09:38:26;5.00;99.90
10083;DHT22;5080;48.528;8.078;2023-11-22T09:40:53;5.00;99.90
10083;DHT22;5080;48.528;8.078;2023-11-22T09:43:20;5.00;99.90
10083;DHT22;5080;48.528;8.078;2023-11-22T09:45:49;5.00;99.90
10083;DHT22;5080;48.528;8.078;2023-11-22T09:48:19;4.90;99.90
10083;DHT22;5080;48.528;8.078;2023-11-22T09:50:53;5.00;99.90
10083;DHT22;5080;48.528;8.078;2023-11-22T09:53:25;5.10;99.90
10083;DHT22;5080;48.528;8.078;2023-11-22T09:55:52;5.20;99.90
10083;DHT22;5080;48.528;8.078;2023-11-22T09:58:20;5.20;99.90
10083;DHT22;5080;48.528;8.078;2023-11-22T10:00:47;5.10;99.90
10083;DHT22;5080;48.528;8.078;2023-11-22T10:03:14;5.20;99.90
10083;DHT22;5080;48.528;8.078;2023-11-22T10:05:43;5.30;99.90
10083;DHT22;5080;48.528;8.078;2023-11-22T10:08:11;5.40;99.90
10083;DHT22;5080;48.528;8.078;2023-11-22T10:10:38;5.40;99.90
10083;DHT22;5080;48.528;8.078;2023-11-22T10:13:05;5.40;99.90
10083;DHT22;5080;48.528;8.078;2023-11-22T10:15:32;5.10;99.90
10083;DHT22;5080;48.528;8.078;2023-11-22T10:17:59;5.30;99.90
10083;DHT22;5080;48.528;8.078;2023-11-22T10:20:36;5.30;99.90
10083;DHT22;5080;48.528;8.078;2023-11-22T10:23:08;5.20;99.90
10083;DHT22;5080;48.528;8.078;2023-11-22T10:25:37;5.20;99.90
10083;DHT22;5080;48.528;8.078;2023-11-22T10:28:09;5.10;99.90
10083;DHT22;5080;48.528;8.078;2023-11-22T10:30:36;5.20;99.90
10083;DHT22;5080;48.528;8.078;2023-11-22T10:33:03;5.10;99.90
10083;DHT22;5080;48.528;8.078;2023-11-22T10:35:29;5.20;99.90
10083;DHT22;5080;48.528;8.078;2023-11-22T10:37:57;5.10;99.90
10083;DHT22;5080;48.528;8.078;2023-11-22T10:40:28;5.20;99.90
10083;DHT22;5080;48.528;8.078;2023-11-22T10:42:56;5.10;99.90
10083;DHT22;5080;48.528;8.078;2023-11-22T10:45:26;5.10;99.90
10083;DHT22;5080;48.528;8.078;2023-11-22T10:47:56;5.10;99.90
10083;DHT22;5080;48.528;8.078;2023-11-22T10:50:23;5.20;99.90
10083;DHT22;5080;48.528;8.078;2023-11-22T10:52:52;5.20;99.90
10083;DHT22;5080;48.528;8.078;2023-11-22T10:55:21;5.20;99.90
10083;DHT22;5080;48.528;8.078;2023-11-22T10:57:51;5.20;99.90
10083;DHT22;5080;48.528;8.078;2023-11-22T11:00:21;5.20;99.90
10083;DHT22;5080;48.528;8.078;2023-11-22T11:02:54;5.20;99.90
10083;DHT22;5080;48.528;8.078;2023-11-22T11:05:24;5.30;99.90
10083;DHT22;5080;48.528;8.078;2023-11-22T11:07:58;5.50;99.90
10083;DHT22;5080;48.528;8.078;2023-11-22T11:10:27;5.60;99.90
10083;DHT22;5080;48.528;8.078;2023-11-22T11:12:55;5.60;99.90
10083;DHT22;5080;48.528;8.078;2023-11-22T11:15:23;5.60;99.90
10083;DHT22;5080;48.528;8.078;2023-11-22T11:17:51;5.50;99.90
10083;DHT22;5080;48.528;8.078;2023-11-22T11:20:19;5.50;99.90
10083;DHT22;5080;48.528;8.078;2023-11-22T11:22:49;5.60;99.90
10083;DHT22;5080;48.528;8.078;2023-11-22T11:25:17;5.40;99.90
10083;DHT22;5080;48.528;8.078;2023-11-22T11:27:45;5.40;99.90
10083;DHT22;5080;48.528;8.078;2023-11-22T11:30:42;5.40;99.90
10083;DHT22;5080;48.528;8.078;2023-11-22T11:33:10;5.50;99.90
10083;DHT22;5080;48.528;8.078;2023-11-22T11:35:38;5.60;99.90
10083;DHT22;5080;48.528;8.078;2023-11-22T11:38:05;5.60;99.90
10083;DHT22;5080;48.528;8.078;2023-11-22T11:40:35;5.60;99.90
10083;DHT22;5080;48.528;8.078;2023-11-22T11:43:04;5.80;99.90
10083;DHT22;5080;48.528;8.078;2023-11-22T11:45:37;5.80;99.90
10083;DHT22;5080;48.528;8.078;2023-11-22T11:48:06;5.70;99.90
10083;DHT22;5080;48.528;8.078;2023-11-22T11:50:33;5.60;99.90
10083;DHT22;5080;48.528;8.078;2023-11-22T11:53:00;5.50;99.90
10083;DHT22;5080;48.528;8.078;2023-11-22T11:55:27;5.50;99.90
10083;DHT22;5080;48.528;8.078;2023-11-22T11:57:54;5.50;99.90
10083;DHT22;5080;48.528;8.078;2023-11-22T12:00:22;5.40;99.90
10083;DHT22;5080;48.528;8.078;2023-11-22T12:02:50;5.30;99.90
10083;DHT22;5080;48.528;8.078;2023-11-22T12:05:20;5.20;99.90
10083;DHT22;5080;48.528;8.078;2023-11-22T12:07:46;5.30;99.90
10083;DHT22;5080;48.528;8.078;2023-11-22T12:10:14;5.30;99.90
10083;DHT22;5080;48.528;8.078;2023-11-22T12:12:43;5.20;99.90
10083;DHT22;5080;48.528;8.078;2023-11-22T12:15:11;5.20;99.90
10083;DHT22;5080;48.528;8.078;2023-11-22T12:17:40;5.00;99.90
10083;DHT22;5080;48.528;8.078;2023-11-22T12:20:13;5.10;99.90
10083;DHT22;5080;48.528;8.078;2023-11-22T12:22:43;5.10;99.90
10083;DHT22;5080;48.528;8.078;2023-11-22T12:25:10;5.10;99.90
10083;DHT22;5080;48.528;8.078;2023-11-22T12:27:42;5.10;99.90
10083;DHT22;5080;48.528;8.078;2023-11-22T12:30:27;5.20;99.90
10083;DHT22;5080;48.528;8.078;2023-11-22T12:32:55;5.30;99.90
10083;DHT22;5080;48.528;8.078;2023-11-22T12:35:22;5.40;99.90
10083;DHT22;5080;48.528;8.078;2023-11-22T12:37:50;5.50;99.90
10083;DHT22;5080;48.528;8.078;2023-11-22T12:40:20;5.70;99.90
10083;DHT22;5080;48.528;8.078;2023-11-22T12:42:48;5.80;99.90
10083;DHT22;5080;48.528;8.078;2023-11-22T12:45:20;5.60;99.90
10083;DHT22;5080;48.528;8.078;2023-11-22T12:47:47;5.50;99.90
10083;DHT22;5080;48.528;8.078;2023-11-22T12:50:29;5.50;99.90
10083;DHT22;5080;48.528;8.078;2023-11-22T12:52:58;5.60;99.90
10083;DHT22;5080;48.528;8.078;2023-11-22T12:55:25;5.70;99.90
10083;DHT22;5080;48.528;8.078;2023-11-22T12:57:57;5.70;99.90
10083;DHT22;5080;48.528;8.078;2023-11-22T13:00:25;5.60;99.90
10083;DHT22;5080;48.528;8.078;2023-11-22T13:02:54;5.60;99.90
10083;DHT22;5080;48.528;8.078;2023-11-22T13:05:21;5.60;99.90
10083;DHT22;5080;48.528;8.078;2023-11-22T13:07:48;5.60;99.90
10083;DHT22;5080;48.528;8.078;2023-11-22T13:10:16;5.70;99.90
10083;DHT22;5080;48.528;8.078;2023-11-22T13:12:43;5.70;99.90
10083;DHT22;5080;48.528;8.078;2023-11-22T13:15:11;5.70;99.90
10083;DHT22;5080;48.528;8.078;2023-11-22T13:17:38;5.40;99.90
10083;DHT22;5080;48.528;8.078;2023-11-22T13:20:06;5.40;99.90
10083;DHT22;5080;48.528;8.078;2023-11-22T13:22:39;5.40;99.90
10083;DHT22;5080;48.528;8.078;2023-11-22T13:25:07;5.40;99.90
10083;DHT22;5080;48.528;8.078;2023-11-22T13:27:37;5.40;99.90
10083;DHT22;5080;48.528;8.078;2023-11-22T13:30:04;5.40;99.90
10083;DHT22;5080;48.528;8.078;2023-11-22T13:32:31;5.40;99.90
10083;DHT22;5080;48.528;8.078;2023-11-22T13:34:58;5.40;99.90
10083;DHT22;5080;48.528;8.078;2023-11-22T13:37:25;5.50;99.90
10083;DHT22;5080;48.528;8.078;2023-11-22T13:39:53;5.50;99.90
10083;DHT22;5080;48.528;8.078;2023-11-22T13:42:19;5.50;99.90
10083;DHT22;5080;48.528;8.078;2023-11-22T13:44:47;5.70;99.90
10083;DHT22;5080;48.528;8.078;2023-11-22T13:47:15;5.70;99.90
10083;DHT22;5080;48.528;8.078;2023-11-22T13:49:42;5.80;99.90
10083;DHT22;5080;48.528;8.078;2023-11-22T13:52:09;5.80;99.90
10083;DHT22;5080;48.528;8.078;2023-11-22T13:54:36;5.70;99.90
10083;DHT22;5080;48.528;8.078;2023-11-22T13:57:04;5.50;99.90
10083;DHT22;5080;48.528;8.078;2023-11-22T13:59:31;5.40;99.90
10083;DHT22;5080;48.528;8.078;2023-11-22T14:01:59;5.40;99.90
10083;DHT22;5080;48.528;8.078;2023-11-22T14:04:26;5.40;99.90
10083;DHT22;5080;48.528;8.078;2023-11-22T14:06:53;5.50;99.90
10083;DHT22;5080;48.528;8.078;2023-11-22T14:09:20;5.50;99.90
10083;DHT22;5080;48.528;8.078;2023-11-22T14:11:46;5.40;99.90
10083;DHT22;5080;48.528;8.078;2023-11-22T14:14:14;5.40;99.90
10083;DHT22;5080;48.528;8.078;2023-11-22T14:16:42;5.50;99.90
10083;DHT22;5080;48.528;8.078;2023-11-22T14:19:11;5.30;99.90
10083;DHT22;5080;48.528;8.078;2023-11-22T14:21:38;5.30;99.90
10083;DHT22;5080;48.528;8.078;2023-11-22T14:24:06;5.30;99.90
10083;DHT22;5080;48.528;8.078;2023-11-22T14:26:33;5.40;99.90
10083;DHT22;5080;48.528;8.078;2023-11-22T14:29:01;5.60;99.90
10083;DHT22;5080;48.528;8.078;2023-11-22T14:31:28;5.70;99.90
10083;DHT22;5080;48.528;8.078;2023-11-22T14:33:56;5.70;99.90
10083;DHT22;5080;48.528;8.078;2023-11-22T14:36:24;5.60;99.90
10083;DHT22;5080;48.528;8.078;2023-11-22T14:38:52;5.60;99.90
10083;DHT22;5080;48.528;8.078;2023-11-22T14:41:22;5.50;99.90
10083;DHT22;5080;48.528;8.078;2023-11-22T14:43:49;5.60;99.90
10083;DHT22;5080;48.528;8.078;2023-11-22T14:46:15;5.70;99.90
10083;DHT22;5080;48.528;8.078;2023-11-22T14:48:43;5.70;99.90
10083;DHT22;5080;48.528;8.078;2023-11-22T14:51:12;5.80;99.90
10083;DHT22;5080;48.528;8.078;2023-11-22T14:53:40;5.80;99.90
10083;DHT22;5080;48.528;8.078;2023-11-22T14:56:10;5.80;99.90
10083;DHT22;5080;48.528;8.078;2023-11-22T14:58:37;5.80;99.90
10083;DHT22;5080;48.528;8.078;2023-11-22T15:01:04;5.80;99.90
10083;DHT22;5080;48.528;8.078;2023-11-22T15:03:34;5.80;99.90
10083;DHT22;5080;48.528;8.078;2023-11-22T15:06:00;5.70;99.90
10083;DHT22;5080;48.528;8.078;2023-11-22T15:08:27;5.80;99.90
10083;DHT22;5080;48.528;8.078;2023-11-22T15:10:55;5.70;99.90
10083;DHT22;5080;48.528;8.078;2023-11-22T15:13:22;5.70;99.90
10083;DHT22;5080;48.528;8.078;2023-11-22T15:15:50;5.70;99.90
10083;DHT22;5080;48.528;8.078;2023-11-22T15:18:16;5.60;99.90
10083;DHT22;5080;48.528;8.078;2023-11-22T15:20:43;5.60;99.90
10083;DHT22;5080;48.528;8.078;2023-11-22T15:23:10;5.60;99.90
10083;DHT22;5080;48.528;8.078;2023-11-22T15:25:37;5.60;99.90
10083;DHT22;5080;48.528;8.078;2023-11-22T15:28:06;5.40;99.90
10083;DHT22;5080;48.528;8.078;2023-11-22T15:30:34;5.40;99.90
10083;DHT22;5080;48.528;8.078;2023-11-22T15:33:01;5.30;99.90
10083;DHT22;5080;48.528;8.078;2023-11-22T15:35:30;5.20;99.90
10083;DHT22;5080;48.528;8.078;2023-11-22T15:37:57;5.10;99.90
10083;DHT22;5080;48.528;8.078;2023-11-22T15:40:25;5.20;99.90
10083;DHT22;5080;48.528;8.078;2023-11-22T15:42:52;5.10;99.90
10083;DHT22;5080;48.528;8.078;2023-11-22T15:45:20;5.10;99.90
10083;DHT22;5080;48.528;8.078;2023-11-22T15:47:47;5.00;99.90
10083;DHT22;5080;48.528;8.078;2023-11-22T15:50:14;4.90;99.90
10083;DHT22;5080;48.528;8.078;2023-11-22T15:52:42;5.00;99.90
10083;DHT22;5080;48.528;8.078;2023-11-22T15:55:09;5.00;99.90
10083;DHT22;5080;48.528;8.078;2023-11-22T15:57:36;5.00;99.90
10083;DHT22;5080;48.528;8.078;2023-11-22T16:00:03;5.20;99.90
10083;DHT22;5080;48.528;8.078;2023-11-22T16:02:37;5.10;99.90
10083;DHT22;5080;48.528;8.078;2023-11-22T16:05:04;5.20;99.90